Terminal Aerodrome Forecast
Issued by NWS

Home | Current Version | Previous Version | Text Only | Print | Product List | Glossary On
Versions: 1 2 3 4 5 6 7 8 9 10 11 12 13
364
FTUS46 KPDT 271129
TAFPSC
TAF
KPSC 271129Z 2712/2812 23007KT P6SM BKN100
     FM272000 25014G20KT P6SM VCSH BKN060
     FM280300 23007KT P6SM SCT090
     FM281000 21005KT P6SM FEW090 BKN200=

USA.gov is the U.S. government's official web portal to all federal, state and local government web resources and services.